sensor_id;sensor_type;location;lat;lon;timestamp;P1;durP1;ratioP1;P2;durP2;ratioP2
42682;SDS011;28293;50.930;3.464;2023-05-20T00:01:17;30.17;;;18.65;;
42682;SDS011;28293;50.930;3.464;2023-05-20T00:03:42;28.55;;;17.88;;
42682;SDS011;28293;50.930;3.464;2023-05-20T00:06:08;34.15;;;19.88;;
42682;SDS011;28293;50.930;3.464;2023-05-20T00:08:34;30.77;;;19.15;;
42682;SDS011;28293;50.930;3.464;2023-05-20T00:11:00;34.28;;;20.90;;
42682;SDS011;28293;50.930;3.464;2023-05-20T00:13:25;30.63;;;19.42;;
42682;SDS011;28293;50.930;3.464;2023-05-20T00:15:51;30.13;;;20.17;;
42682;SDS011;28293;50.930;3.464;2023-05-20T00:18:17;31.90;;;20.33;;
42682;SDS011;28293;50.930;3.464;2023-05-20T00:20:43;30.08;;;19.95;;
42682;SDS011;28293;50.930;3.464;2023-05-20T00:23:09;32.97;;;20.05;;
42682;SDS011;28293;50.930;3.464;2023-05-20T00:25:34;30.73;;;20.67;;
42682;SDS011;28293;50.930;3.464;2023-05-20T00:28:00;31.15;;;21.05;;
42682;SDS011;28293;50.930;3.464;2023-05-20T00:30:26;33.33;;;21.08;;
42682;SDS011;28293;50.930;3.464;2023-05-20T00:32:52;40.97;;;22.20;;
42682;SDS011;28293;50.930;3.464;2023-05-20T00:35:18;34.95;;;21.85;;
42682;SDS011;28293;50.930;3.464;2023-05-20T00:37:43;38.33;;;22.60;;
42682;SDS011;28293;50.930;3.464;2023-05-20T00:40:09;29.67;;;21.13;;
42682;SDS011;28293;50.930;3.464;2023-05-20T00:42:35;36.00;;;22.75;;
42682;SDS011;28293;50.930;3.464;2023-05-20T00:45:01;34.20;;;23.23;;
42682;SDS011;28293;50.930;3.464;2023-05-20T00:47:28;35.38;;;22.58;;
42682;SDS011;28293;50.930;3.464;2023-05-20T00:49:55;30.63;;;22.70;;
42682;SDS011;28293;50.930;3.464;2023-05-20T00:52:22;31.42;;;22.92;;
42682;SDS011;28293;50.930;3.464;2023-05-20T00:54:48;33.53;;;22.98;;
42682;SDS011;28293;50.930;3.464;2023-05-20T00:57:15;32.15;;;22.23;;
42682;SDS011;28293;50.930;3.464;2023-05-20T00:59:41;30.23;;;20.88;;
42682;SDS011;28293;50.930;3.464;2023-05-20T01:02:07;32.33;;;21.58;;
42682;SDS011;28293;50.930;3.464;2023-05-20T01:04:33;33.83;;;22.75;;
42682;SDS011;28293;50.930;3.464;2023-05-20T01:06:59;29.73;;;22.00;;
42682;SDS011;28293;50.930;3.464;2023-05-20T01:09:28;30.05;;;20.40;;
42682;SDS011;28293;50.930;3.464;2023-05-20T01:12:04;32.45;;;22.08;;
42682;SDS011;28293;50.930;3.464;2023-05-20T01:14:35;32.95;;;22.02;;
42682;SDS011;28293;50.930;3.464;2023-05-20T01:17:07;28.80;;;20.03;;
42682;SDS011;28293;50.930;3.464;2023-05-20T01:19:43;33.33;;;21.88;;
42682;SDS011;28293;50.930;3.464;2023-05-20T01:22:10;31.10;;;19.75;;
42682;SDS011;28293;50.930;3.464;2023-05-20T01:24:40;26.30;;;19.48;;
42682;SDS011;28293;50.930;3.464;2023-05-20T01:27:11;27.63;;;19.77;;
42682;SDS011;28293;50.930;3.464;2023-05-20T01:29:38;28.98;;;20.67;;
42682;SDS011;28293;50.930;3.464;2023-05-20T01:32:18;26.52;;;18.35;;
42682;SDS011;28293;50.930;3.464;2023-05-20T01:34:51;30.40;;;19.23;;
42682;SDS011;28293;50.930;3.464;2023-05-20T01:37:18;26.83;;;18.38;;
42682;SDS011;28293;50.930;3.464;2023-05-20T01:39:46;24.45;;;17.02;;
42682;SDS011;28293;50.930;3.464;2023-05-20T01:42:13;23.23;;;17.30;;
42682;SDS011;28293;50.930;3.464;2023-05-20T01:44:40;23.65;;;17.83;;
42682;SDS011;28293;50.930;3.464;2023-05-20T01:47:07;27.52;;;17.63;;
42682;SDS011;28293;50.930;3.464;2023-05-20T01:49:32;26.10;;;17.38;;
42682;SDS011;28293;50.930;3.464;2023-05-20T01:51:58;27.13;;;18.00;;
42682;SDS011;28293;50.930;3.464;2023-05-20T01:54:24;27.73;;;16.05;;
42682;SDS011;28293;50.930;3.464;2023-05-20T01:56:50;21.92;;;16.08;;
42682;SDS011;28293;50.930;3.464;2023-05-20T01:59:16;22.25;;;16.27;;
42682;SDS011;28293;50.930;3.464;2023-05-20T02:01:42;22.30;;;15.40;;
42682;SDS011;28293;50.930;3.464;2023-05-20T02:04:07;23.13;;;15.85;;
42682;SDS011;28293;50.930;3.464;2023-05-20T02:06:33;23.90;;;15.27;;
42682;SDS011;28293;50.930;3.464;2023-05-20T02:08:59;18.60;;;14.65;;
42682;SDS011;28293;50.930;3.464;2023-05-20T02:11:25;22.08;;;14.23;;
42682;SDS011;28293;50.930;3.464;2023-05-20T02:13:50;21.73;;;13.23;;
42682;SDS011;28293;50.930;3.464;2023-05-20T02:16:16;22.77;;;14.70;;
42682;SDS011;28293;50.930;3.464;2023-05-20T02:18:42;19.02;;;12.93;;
42682;SDS011;28293;50.930;3.464;2023-05-20T02:21:08;21.70;;;13.07;;
42682;SDS011;28293;50.930;3.464;2023-05-20T02:23:34;23.67;;;13.70;;
42682;SDS011;28293;50.930;3.464;2023-05-20T02:26:00;22.63;;;12.82;;
42682;SDS011;28293;50.930;3.464;2023-05-20T02:28:26;21.02;;;13.15;;
42682;SDS011;28293;50.930;3.464;2023-05-20T02:30:52;21.65;;;12.95;;
42682;SDS011;28293;50.930;3.464;2023-05-20T02:33:17;22.25;;;11.50;;
42682;SDS011;28293;50.930;3.464;2023-05-20T02:35:44;19.90;;;12.77;;
42682;SDS011;28293;50.930;3.464;2023-05-20T02:38:10;20.95;;;12.15;;
42682;SDS011;28293;50.930;3.464;2023-05-20T02:40:36;18.38;;;12.25;;
42682;SDS011;28293;50.930;3.464;2023-05-20T02:43:02;18.65;;;11.88;;
42682;SDS011;28293;50.930;3.464;2023-05-20T02:45:28;18.52;;;12.02;;
42682;SDS011;28293;50.930;3.464;2023-05-20T02:47:55;23.73;;;12.32;;
42682;SDS011;28293;50.930;3.464;2023-05-20T02:50:20;17.83;;;12.48;;
42682;SDS011;28293;50.930;3.464;2023-05-20T02:52:46;16.48;;;11.27;;
42682;SDS011;28293;50.930;3.464;2023-05-20T02:55:12;19.25;;;12.23;;
42682;SDS011;28293;50.930;3.464;2023-05-20T02:57:38;19.70;;;12.13;;
42682;SDS011;28293;50.930;3.464;2023-05-20T03:00:04;22.27;;;12.55;;
42682;SDS011;28293;50.930;3.464;2023-05-20T03:02:32;18.73;;;11.85;;
42682;SDS011;28293;50.930;3.464;2023-05-20T03:04:58;18.17;;;12.55;;
42682;SDS011;28293;50.930;3.464;2023-05-20T03:07:25;15.73;;;10.73;;
42682;SDS011;28293;50.930;3.464;2023-05-20T03:09:51;15.85;;;11.15;;
42682;SDS011;28293;50.930;3.464;2023-05-20T03:12:17;18.85;;;13.18;;
42682;SDS011;28293;50.930;3.464;2023-05-20T03:14:42;19.27;;;11.68;;
42682;SDS011;28293;50.930;3.464;2023-05-20T03:17:08;20.10;;;11.02;;
42682;SDS011;28293;50.930;3.464;2023-05-20T03:19:35;17.70;;;11.82;;
42682;SDS011;28293;50.930;3.464;2023-05-20T03:22:01;17.48;;;10.75;;
42682;SDS011;28293;50.930;3.464;2023-05-20T03:24:27;21.48;;;12.40;;
42682;SDS011;28293;50.930;3.464;2023-05-20T03:26:53;18.45;;;11.25;;
42682;SDS011;28293;50.930;3.464;2023-05-20T03:29:19;17.83;;;12.18;;
42682;SDS011;28293;50.930;3.464;2023-05-20T03:31:47;19.48;;;11.45;;
42682;SDS011;28293;50.930;3.464;2023-05-20T03:34:12;16.73;;;11.93;;
42682;SDS011;28293;50.930;3.464;2023-05-20T03:36:38;18.20;;;11.52;;
42682;SDS011;28293;50.930;3.464;2023-05-20T03:39:04;18.33;;;10.70;;
42682;SDS011;28293;50.930;3.464;2023-05-20T03:41:30;19.50;;;11.45;;
42682;SDS011;28293;50.930;3.464;2023-05-20T03:43:59;22.80;;;12.27;;
42682;SDS011;28293;50.930;3.464;2023-05-20T03:46:25;17.17;;;11.70;;
42682;SDS011;28293;50.930;3.464;2023-05-20T03:48:50;18.15;;;11.77;;
42682;SDS011;28293;50.930;3.464;2023-05-20T03:51:16;16.95;;;11.75;;
42682;SDS011;28293;50.930;3.464;2023-05-20T03:53:42;18.23;;;11.43;;
42682;SDS011;28293;50.930;3.464;2023-05-20T03:56:07;19.95;;;11.60;;
42682;SDS011;28293;50.930;3.464;2023-05-20T03:58:33;18.35;;;12.27;;
42682;SDS011;28293;50.930;3.464;2023-05-20T04:00:59;18.42;;;11.63;;
42682;SDS011;28293;50.930;3.464;2023-05-20T04:03:25;20.83;;;12.02;;
42682;SDS011;28293;50.930;3.464;2023-05-20T04:05:52;18.55;;;11.05;;
42682;SDS011;28293;50.930;3.464;2023-05-20T04:08:18;16.83;;;11.57;;
42682;SDS011;28293;50.930;3.464;2023-05-20T04:10:45;21.30;;;12.68;;
42682;SDS011;28293;50.930;3.464;2023-05-20T04:13:11;17.58;;;11.50;;
42682;SDS011;28293;50.930;3.464;2023-05-20T04:15:37;17.30;;;11.00;;
42682;SDS011;28293;50.930;3.464;2023-05-20T04:18:06;18.55;;;11.68;;
42682;SDS011;28293;50.930;3.464;2023-05-20T04:20:32;16.98;;;11.00;;
42682;SDS011;28293;50.930;3.464;2023-05-20T04:22:58;18.73;;;11.27;;
42682;SDS011;28293;50.930;3.464;2023-05-20T04:25:24;21.85;;;12.35;;
42682;SDS011;28293;50.930;3.464;2023-05-20T04:27:50;17.33;;;11.10;;
42682;SDS011;28293;50.930;3.464;2023-05-20T04:30:18;18.88;;;11.60;;
42682;SDS011;28293;50.930;3.464;2023-05-20T04:32:46;20.45;;;11.38;;
42682;SDS011;28293;50.930;3.464;2023-05-20T04:35:12;18.27;;;11.10;;
42682;SDS011;28293;50.930;3.464;2023-05-20T04:37:38;18.55;;;11.32;;
42682;SDS011;28293;50.930;3.464;2023-05-20T04:40:04;18.70;;;11.23;;
42682;SDS011;28293;50.930;3.464;2023-05-20T04:42:33;21.70;;;12.65;;
42682;SDS011;28293;50.930;3.464;2023-05-20T04:44:59;18.83;;;10.60;;
42682;SDS011;28293;50.930;3.464;2023-05-20T04:47:29;21.90;;;11.63;;
42682;SDS011;28293;50.930;3.464;2023-05-20T04:49:55;18.05;;;11.38;;
42682;SDS011;28293;50.930;3.464;2023-05-20T04:52:24;17.58;;;11.18;;
42682;SDS011;28293;50.930;3.464;2023-05-20T04:54:50;19.33;;;11.40;;
42682;SDS011;28293;50.930;3.464;2023-05-20T04:57:16;21.42;;;10.82;;
42682;SDS011;28293;50.930;3.464;2023-05-20T04:59:45;21.33;;;11.75;;
42682;SDS011;28293;50.930;3.464;2023-05-20T05:02:11;16.15;;;10.43;;
42682;SDS011;28293;50.930;3.464;2023-05-20T05:04:37;17.75;;;10.95;;
42682;SDS011;28293;50.930;3.464;2023-05-20T05:07:02;18.05;;;10.00;;
42682;SDS011;28293;50.930;3.464;2023-05-20T05:09:29;18.30;;;10.93;;
42682;SDS011;28293;50.930;3.464;2023-05-20T05:11:55;17.20;;;10.63;;
42682;SDS011;28293;50.930;3.464;2023-05-20T05:14:20;16.45;;;11.15;;
42682;SDS011;28293;50.930;3.464;2023-05-20T05:16:47;18.25;;;10.82;;
42682;SDS011;28293;50.930;3.464;2023-05-20T05:19:13;22.60;;;11.25;;
42682;SDS011;28293;50.930;3.464;2023-05-20T05:21:39;16.30;;;9.80;;
42682;SDS011;28293;50.930;3.464;2023-05-20T05:24:05;15.95;;;9.35;;
42682;SDS011;28293;50.930;3.464;2023-05-20T05:26:31;16.05;;;8.40;;
42682;SDS011;28293;50.930;3.464;2023-05-20T05:28:57;13.07;;;8.52;;
42682;SDS011;28293;50.930;3.464;2023-05-20T05:31:43;14.98;;;8.02;;
42682;SDS011;28293;50.930;3.464;2023-05-20T05:34:09;15.30;;;7.93;;
42682;SDS011;28293;50.930;3.464;2023-05-20T05:36:35;14.07;;;7.63;;
42682;SDS011;28293;50.930;3.464;2023-05-20T05:39:03;14.80;;;7.97;;
42682;SDS011;28293;50.930;3.464;2023-05-20T05:41:29;12.68;;;7.85;;
42682;SDS011;28293;50.930;3.464;2023-05-20T05:43:57;13.27;;;8.02;;
42682;SDS011;28293;50.930;3.464;2023-05-20T05:46:23;14.27;;;8.25;;
42682;SDS011;28293;50.930;3.464;2023-05-20T05:48:49;15.30;;;8.35;;
42682;SDS011;28293;50.930;3.464;2023-05-20T05:51:28;15.00;;;9.40;;
42682;SDS011;28293;50.930;3.464;2023-05-20T05:53:54;15.77;;;9.40;;
42682;SDS011;28293;50.930;3.464;2023-05-20T05:56:20;16.90;;;10.40;;
42682;SDS011;28293;50.930;3.464;2023-05-20T05:58:46;16.23;;;9.90;;
42682;SDS011;28293;50.930;3.464;2023-05-20T06:01:15;17.60;;;11.13;;
42682;SDS011;28293;50.930;3.464;2023-05-20T06:03:41;15.85;;;10.63;;
42682;SDS011;28293;50.930;3.464;2023-05-20T06:06:07;18.65;;;10.93;;
42682;SDS011;28293;50.930;3.464;2023-05-20T06:08:32;17.33;;;11.02;;
42682;SDS011;28293;50.930;3.464;2023-05-20T06:10:58;18.95;;;10.90;;
42682;SDS011;28293;50.930;3.464;2023-05-20T06:13:24;17.23;;;11.13;;
42682;SDS011;28293;50.930;3.464;2023-05-20T06:15:50;15.77;;;10.40;;
42682;SDS011;28293;50.930;3.464;2023-05-20T06:18:16;17.10;;;10.93;;
42682;SDS011;28293;50.930;3.464;2023-05-20T06:20:42;18.05;;;11.10;;
42682;SDS011;28293;50.930;3.464;2023-05-20T06:23:07;18.13;;;11.57;;
42682;SDS011;28293;50.930;3.464;2023-05-20T06:25:33;14.73;;;10.88;;
42682;SDS011;28293;50.930;3.464;2023-05-20T06:27:59;16.38;;;11.00;;
42682;SDS011;28293;50.930;3.464;2023-05-20T06:30:25;18.33;;;10.70;;
42682;SDS011;28293;50.930;3.464;2023-05-20T06:32:51;20.42;;;11.25;;
42682;SDS011;28293;50.930;3.464;2023-05-20T06:35:17;18.77;;;11.27;;
42682;SDS011;28293;50.930;3.464;2023-05-20T06:37:42;18.80;;;10.88;;
42682;SDS011;28293;50.930;3.464;2023-05-20T06:40:08;15.27;;;11.27;;
42682;SDS011;28293;50.930;3.464;2023-05-20T06:42:34;16.00;;;11.07;;
42682;SDS011;28293;50.930;3.464;2023-05-20T06:45:00;19.92;;;11.77;;
42682;SDS011;28293;50.930;3.464;2023-05-20T06:47:26;18.77;;;11.82;;
42682;SDS011;28293;50.930;3.464;2023-05-20T06:49:52;22.67;;;11.68;;
42682;SDS011;28293;50.930;3.464;2023-05-20T06:52:17;16.55;;;11.05;;
42682;SDS011;28293;50.930;3.464;2023-05-20T06:54:43;18.50;;;11.98;;
42682;SDS011;28293;50.930;3.464;2023-05-20T06:57:09;19.08;;;12.18;;
42682;SDS011;28293;50.930;3.464;2023-05-20T06:59:35;18.52;;;12.23;;
42682;SDS011;28293;50.930;3.464;2023-05-20T07:02:01;17.73;;;11.35;;
42682;SDS011;28293;50.930;3.464;2023-05-20T07:04:27;20.55;;;12.27;;
42682;SDS011;28293;50.930;3.464;2023-05-20T07:06:56;20.20;;;11.40;;
42682;SDS011;28293;50.930;3.464;2023-05-20T07:09:24;19.77;;;12.68;;
42682;SDS011;28293;50.930;3.464;2023-05-20T07:11:50;20.35;;;12.40;;
42682;SDS011;28293;50.930;3.464;2023-05-20T07:14:16;17.05;;;11.98;;
42682;SDS011;28293;50.930;3.464;2023-05-20T07:16:42;15.82;;;12.38;;
42682;SDS011;28293;50.930;3.464;2023-05-20T07:19:08;19.77;;;12.45;;
42682;SDS011;28293;50.930;3.464;2023-05-20T07:21:33;16.25;;;11.23;;
42682;SDS011;28293;50.930;3.464;2023-05-20T07:24:00;16.05;;;10.65;;
42682;SDS011;28293;50.930;3.464;2023-05-20T07:26:26;16.88;;;10.63;;
42682;SDS011;28293;50.930;3.464;2023-05-20T07:28:51;16.23;;;11.48;;
42682;SDS011;28293;50.930;3.464;2023-05-20T07:31:20;16.35;;;10.60;;
42682;SDS011;28293;50.930;3.464;2023-05-20T07:33:46;19.55;;;11.20;;
42682;SDS011;28293;50.930;3.464;2023-05-20T07:36:11;19.48;;;11.07;;
42682;SDS011;28293;50.930;3.464;2023-05-20T07:38:37;17.02;;;11.25;;
42682;SDS011;28293;50.930;3.464;2023-05-20T07:41:03;19.60;;;11.40;;
42682;SDS011;28293;50.930;3.464;2023-05-20T07:43:29;19.85;;;11.05;;
42682;SDS011;28293;50.930;3.464;2023-05-20T07:45:57;17.85;;;11.23;;
42682;SDS011;28293;50.930;3.464;2023-05-20T07:48:23;18.17;;;11.60;;
42682;SDS011;28293;50.930;3.464;2023-05-20T07:50:49;18.77;;;11.35;;
42682;SDS011;28293;50.930;3.464;2023-05-20T07:53:15;17.52;;;10.48;;
42682;SDS011;28293;50.930;3.464;2023-05-20T07:55:41;15.20;;;9.95;;
42682;SDS011;28293;50.930;3.464;2023-05-20T07:58:10;18.17;;;9.80;;
42682;SDS011;28293;50.930;3.464;2023-05-20T08:00:35;14.15;;;9.88;;
42682;SDS011;28293;50.930;3.464;2023-05-20T08:03:01;16.67;;;10.32;;
42682;SDS011;28293;50.930;3.464;2023-05-20T08:05:27;16.17;;;9.50;;
42682;SDS011;28293;50.930;3.464;2023-05-20T08:07:53;14.57;;;9.55;;
42682;SDS011;28293;50.930;3.464;2023-05-20T08:10:21;15.57;;;9.45;;
42682;SDS011;28293;50.930;3.464;2023-05-20T08:12:46;14.15;;;8.88;;
42682;SDS011;28293;50.930;3.464;2023-05-20T08:15:15;16.20;;;9.68;;
42682;SDS011;28293;50.930;3.464;2023-05-20T08:17:41;14.82;;;9.43;;
42682;SDS011;28293;50.930;3.464;2023-05-20T08:20:08;15.90;;;9.27;;
42682;SDS011;28293;50.930;3.464;2023-05-20T08:22:34;16.13;;;9.43;;
42682;SDS011;28293;50.930;3.464;2023-05-20T08:25:03;13.73;;;8.60;;
42682;SDS011;28293;50.930;3.464;2023-05-20T08:27:33;13.30;;;8.07;;
42682;SDS011;28293;50.930;3.464;2023-05-20T08:30:00;10.95;;;7.43;;
42682;SDS011;28293;50.930;3.464;2023-05-20T08:32:28;14.23;;;8.23;;
42682;SDS011;28293;50.930;3.464;2023-05-20T08:34:54;13.32;;;8.27;;
42682;SDS011;28293;50.930;3.464;2023-05-20T08:37:20;12.75;;;8.50;;
42682;SDS011;28293;50.930;3.464;2023-05-20T08:39:46;14.18;;;8.20;;
42682;SDS011;28293;50.930;3.464;2023-05-20T08:42:13;14.60;;;9.38;;
42682;SDS011;28293;50.930;3.464;2023-05-20T08:44:43;12.43;;;8.02;;
42682;SDS011;28293;50.930;3.464;2023-05-20T08:47:11;13.35;;;9.07;;
42682;SDS011;28293;50.930;3.464;2023-05-20T08:49:38;15.95;;;8.38;;
42682;SDS011;28293;50.930;3.464;2023-05-20T08:52:04;14.30;;;7.97;;
42682;SDS011;28293;50.930;3.464;2023-05-20T08:54:41;11.90;;;7.97;;
42682;SDS011;28293;50.930;3.464;2023-05-20T08:57:12;12.45;;;8.93;;
42682;SDS011;28293;50.930;3.464;2023-05-20T08:59:41;13.85;;;8.30;;
42682;SDS011;28293;50.930;3.464;2023-05-20T09:02:08;12.77;;;7.13;;
42682;SDS011;28293;50.930;3.464;2023-05-20T09:04:37;11.95;;;7.18;;
42682;SDS011;28293;50.930;3.464;2023-05-20T09:07:03;11.15;;;7.03;;
42682;SDS011;28293;50.930;3.464;2023-05-20T09:09:31;12.05;;;7.80;;
42682;SDS011;28293;50.930;3.464;2023-05-20T09:11:58;12.40;;;6.65;;
42682;SDS011;28293;50.930;3.464;2023-05-20T09:14:25;11.57;;;7.18;;
42682;SDS011;28293;50.930;3.464;2023-05-20T09:16:52;12.50;;;7.13;;
42682;SDS011;28293;50.930;3.464;2023-05-20T09:19:21;12.75;;;7.47;;
42682;SDS011;28293;50.930;3.464;2023-05-20T09:21:48;9.93;;;6.75;;
42682;SDS011;28293;50.930;3.464;2023-05-20T09:24:18;12.05;;;6.90;;
42682;SDS011;28293;50.930;3.464;2023-05-20T09:26:49;12.05;;;6.18;;
42682;SDS011;28293;50.930;3.464;2023-05-20T09:29:15;10.82;;;6.50;;
42682;SDS011;28293;50.930;3.464;2023-05-20T09:31:40;10.13;;;6.45;;
42682;SDS011;28293;50.930;3.464;2023-05-20T09:34:06;11.25;;;7.32;;
42682;SDS011;28293;50.930;3.464;2023-05-20T09:36:33;12.68;;;6.97;;
42682;SDS011;28293;50.930;3.464;2023-05-20T09:39:00;11.20;;;6.60;;
42682;SDS011;28293;50.930;3.464;2023-05-20T09:41:30;12.50;;;6.07;;
42682;SDS011;28293;50.930;3.464;2023-05-20T09:44:01;9.55;;;5.53;;
42682;SDS011;28293;50.930;3.464;2023-05-20T09:46:28;12.85;;;5.13;;
42682;SDS011;28293;50.930;3.464;2023-05-20T09:48:55;14.77;;;5.93;;
42682;SDS011;28293;50.930;3.464;2023-05-20T09:51:21;8.43;;;5.35;;
42682;SDS011;28293;50.930;3.464;2023-05-20T09:53:48;11.27;;;5.70;;
42682;SDS011;28293;50.930;3.464;2023-05-20T09:56:15;11.23;;;5.93;;
42682;SDS011;28293;50.930;3.464;2023-05-20T09:58:43;12.07;;;6.30;;
42682;SDS011;28293;50.930;3.464;2023-05-20T10:01:11;10.68;;;6.25;;
42682;SDS011;28293;50.930;3.464;2023-05-20T10:03:37;11.10;;;5.68;;
42682;SDS011;28293;50.930;3.464;2023-05-20T10:11:47;11.65;;;6.30;;
42682;SDS011;28293;50.930;3.464;2023-05-20T10:14:33;12.43;;;6.55;;
42682;SDS011;28293;50.930;3.464;2023-05-20T10:17:12;12.23;;;6.53;;
42682;SDS011;28293;50.930;3.464;2023-05-20T10:19:49;11.85;;;6.18;;
42682;SDS011;28293;50.930;3.464;2023-05-20T10:22:28;11.55;;;6.25;;
42682;SDS011;28293;50.930;3.464;2023-05-20T10:24:59;9.32;;;5.90;;
42682;SDS011;28293;50.930;3.464;2023-05-20T10:27:40;13.40;;;6.35;;
42682;SDS011;28293;50.930;3.464;2023-05-20T10:30:20;10.20;;;6.20;;
42682;SDS011;28293;50.930;3.464;2023-05-20T10:32:56;10.95;;;6.32;;
42682;SDS011;28293;50.930;3.464;2023-05-20T10:35:26;10.43;;;6.82;;
42682;SDS011;28293;50.930;3.464;2023-05-20T10:40:51;11.13;;;6.28;;
42682;SDS011;28293;50.930;3.464;2023-05-20T10:43:26;11.30;;;6.75;;
42682;SDS011;28293;50.930;3.464;2023-05-20T10:45:56;10.73;;;6.50;;
42682;SDS011;28293;50.930;3.464;2023-05-20T10:48:26;9.45;;;6.30;;
42682;SDS011;28293;50.930;3.464;2023-05-20T10:50:58;10.35;;;5.43;;
42682;SDS011;28293;50.930;3.464;2023-05-20T10:53:28;10.07;;;5.65;;
42682;SDS011;28293;50.930;3.464;2023-05-20T10:56:02;11.40;;;5.72;;
42682;SDS011;28293;50.930;3.464;2023-05-20T10:58:34;11.52;;;5.80;;
42682;SDS011;28293;50.930;3.464;2023-05-20T11:01:04;8.65;;;5.63;;
42682;SDS011;28293;50.930;3.464;2023-05-20T11:03:30;9.57;;;5.10;;
42682;SDS011;28293;50.930;3.464;2023-05-20T11:05:57;10.00;;;5.40;;
42682;SDS011;28293;50.930;3.464;2023-05-20T11:08:22;11.50;;;6.10;;
42682;SDS011;28293;50.930;3.464;2023-05-20T11:10:55;11.45;;;5.47;;
42682;SDS011;28293;50.930;3.464;2023-05-20T11:13:21;11.63;;;5.82;;
42682;SDS011;28293;50.930;3.464;2023-05-20T11:15:47;11.18;;;5.50;;
42682;SDS011;28293;50.930;3.464;2023-05-20T11:18:14;9.52;;;5.68;;
42682;SDS011;28293;50.930;3.464;2023-05-20T11:20:40;9.77;;;5.00;;
42682;SDS011;28293;50.930;3.464;2023-05-20T11:23:10;9.60;;;4.88;;
42682;SDS011;28293;50.930;3.464;2023-05-20T11:25:46;9.23;;;5.03;;
42682;SDS011;28293;50.930;3.464;2023-05-20T11:28:13;12.00;;;4.78;;
42682;SDS011;28293;50.930;3.464;2023-05-20T11:30:40;8.88;;;4.40;;
42682;SDS011;28293;50.930;3.464;2023-05-20T11:33:10;9.43;;;4.80;;
42682;SDS011;28293;50.930;3.464;2023-05-20T11:35:37;9.90;;;5.80;;
42682;SDS011;28293;50.930;3.464;2023-05-20T11:38:18;9.75;;;4.90;;
42682;SDS011;28293;50.930;3.464;2023-05-20T11:40:45;10.20;;;4.25;;
42682;SDS011;28293;50.930;3.464;2023-05-20T11:43:18;10.50;;;5.40;;
42682;SDS011;28293;50.930;3.464;2023-05-20T11:46:06;9.32;;;4.70;;
42682;SDS011;28293;50.930;3.464;2023-05-20T11:48:32;7.22;;;4.07;;
42682;SDS011;28293;50.930;3.464;2023-05-20T11:50:58;11.98;;;4.85;;
42682;SDS011;28293;50.930;3.464;2023-05-20T11:53:23;8.05;;;4.10;;
42682;SDS011;28293;50.930;3.464;2023-05-20T11:55:51;9.93;;;4.70;;
42682;SDS011;28293;50.930;3.464;2023-05-20T11:58:17;9.55;;;4.35;;
42682;SDS011;28293;50.930;3.464;2023-05-20T12:00:45;8.82;;;4.05;;
42682;SDS011;28293;50.930;3.464;2023-05-20T12:03:11;13.32;;;4.68;;
42682;SDS011;28293;50.930;3.464;2023-05-20T12:05:37;10.07;;;4.00;;
42682;SDS011;28293;50.930;3.464;2023-05-20T12:08:04;8.38;;;4.10;;
42682;SDS011;28293;50.930;3.464;2023-05-20T12:10:30;11.20;;;4.70;;
42682;SDS011;28293;50.930;3.464;2023-05-20T12:12:57;7.93;;;4.30;;
42682;SDS011;28293;50.930;3.464;2023-05-20T12:15:23;7.35;;;4.15;;
42682;SDS011;28293;50.930;3.464;2023-05-20T12:17:52;10.27;;;3.75;;
42682;SDS011;28293;50.930;3.464;2023-05-20T12:20:20;7.38;;;4.35;;
42682;SDS011;28293;50.930;3.464;2023-05-20T12:22:47;9.68;;;4.53;;
42682;SDS011;28293;50.930;3.464;2023-05-20T12:25:16;7.78;;;3.83;;
42682;SDS011;28293;50.930;3.464;2023-05-20T12:27:45;7.13;;;3.72;;
42682;SDS011;28293;50.930;3.464;2023-05-20T12:30:16;10.30;;;4.03;;
42682;SDS011;28293;50.930;3.464;2023-05-20T12:32:43;9.05;;;3.95;;
42682;SDS011;28293;50.930;3.464;2023-05-20T12:35:10;7.72;;;3.97;;
42682;SDS011;28293;50.930;3.464;2023-05-20T12:37:36;9.55;;;3.60;;
42682;SDS011;28293;50.930;3.464;2023-05-20T12:40:05;7.18;;;3.70;;
42682;SDS011;28293;50.930;3.464;2023-05-20T12:42:35;8.77;;;4.10;;
42682;SDS011;28293;50.930;3.464;2023-05-20T12:45:05;8.60;;;3.60;;
42682;SDS011;28293;50.930;3.464;2023-05-20T12:47:33;6.88;;;3.17;;
42682;SDS011;28293;50.930;3.464;2023-05-20T12:50:06;8.45;;;3.78;;
42682;SDS011;28293;50.930;3.464;2023-05-20T12:52:34;9.80;;;3.70;;
42682;SDS011;28293;50.930;3.464;2023-05-20T12:54:59;8.85;;;3.42;;
42682;SDS011;28293;50.930;3.464;2023-05-20T12:57:26;8.15;;;3.90;;
42682;SDS011;28293;50.930;3.464;2023-05-20T12:59:52;6.55;;;3.58;;
42682;SDS011;28293;50.930;3.464;2023-05-20T13:02:18;7.82;;;3.63;;
42682;SDS011;28293;50.930;3.464;2023-05-20T13:04:44;8.23;;;3.88;;
42682;SDS011;28293;50.930;3.464;2023-05-20T13:07:11;8.60;;;3.92;;
42682;SDS011;28293;50.930;3.464;2023-05-20T13:09:37;8.73;;;3.92;;
42682;SDS011;28293;50.930;3.464;2023-05-20T13:12:05;8.40;;;3.58;;
42682;SDS011;28293;50.930;3.464;2023-05-20T13:14:33;7.55;;;3.53;;
42682;SDS011;28293;50.930;3.464;2023-05-20T13:16:58;6.57;;;2.92;;
42682;SDS011;28293;50.930;3.464;2023-05-20T13:19:24;10.88;;;3.90;;
42682;SDS011;28293;50.930;3.464;2023-05-20T13:21:50;11.18;;;3.90;;
42682;SDS011;28293;50.930;3.464;2023-05-20T13:24:18;6.78;;;3.15;;
42682;SDS011;28293;50.930;3.464;2023-05-20T13:26:45;9.35;;;3.53;;
42682;SDS011;28293;50.930;3.464;2023-05-20T13:29:11;9.50;;;3.70;;
42682;SDS011;28293;50.930;3.464;2023-05-20T13:31:37;8.52;;;3.90;;
42682;SDS011;28293;50.930;3.464;2023-05-20T13:34:03;7.40;;;3.58;;
42682;SDS011;28293;50.930;3.464;2023-05-20T13:36:29;6.63;;;3.90;;
42682;SDS011;28293;50.930;3.464;2023-05-20T13:38:55;6.65;;;3.50;;
42682;SDS011;28293;50.930;3.464;2023-05-20T13:41:22;6.18;;;3.67;;
42682;SDS011;28293;50.930;3.464;2023-05-20T13:43:50;8.60;;;3.95;;
42682;SDS011;28293;50.930;3.464;2023-05-20T13:46:58;7.00;;;3.67;;
42682;SDS011;28293;50.930;3.464;2023-05-20T13:49:37;7.10;;;3.72;;
42682;SDS011;28293;50.930;3.464;2023-05-20T13:52:06;7.85;;;3.53;;
42682;SDS011;28293;50.930;3.464;2023-05-20T13:54:35;8.57;;;4.30;;
42682;SDS011;28293;50.930;3.464;2023-05-20T13:57:01;7.22;;;4.00;;
42682;SDS011;28293;50.930;3.464;2023-05-20T13:59:31;9.02;;;4.68;;
42682;SDS011;28293;50.930;3.464;2023-05-20T14:01:58;6.53;;;3.88;;
42682;SDS011;28293;50.930;3.464;2023-05-20T14:04:25;7.70;;;3.85;;
42682;SDS011;28293;50.930;3.464;2023-05-20T14:06:51;10.20;;;3.70;;
42682;SDS011;28293;50.930;3.464;2023-05-20T14:09:18;8.07;;;4.13;;
42682;SDS011;28293;50.930;3.464;2023-05-20T14:11:47;6.78;;;3.60;;
42682;SDS011;28293;50.930;3.464;2023-05-20T14:14:15;7.80;;;4.10;;
42682;SDS011;28293;50.930;3.464;2023-05-20T14:16:41;7.85;;;4.05;;
42682;SDS011;28293;50.930;3.464;2023-05-20T14:19:10;9.25;;;4.22;;
42682;SDS011;28293;50.930;3.464;2023-05-20T14:21:36;7.93;;;3.70;;
42682;SDS011;28293;50.930;3.464;2023-05-20T14:24:04;10.65;;;4.60;;
42682;SDS011;28293;50.930;3.464;2023-05-20T14:26:31;10.43;;;4.13;;
42682;SDS011;28293;50.930;3.464;2023-05-20T14:28:58;8.07;;;4.13;;
42682;SDS011;28293;50.930;3.464;2023-05-20T14:31:25;7.55;;;3.60;;
42682;SDS011;28293;50.930;3.464;2023-05-20T14:33:53;11.02;;;4.18;;
42682;SDS011;28293;50.930;3.464;2023-05-20T14:36:19;8.35;;;4.18;;
42682;SDS011;28293;50.930;3.464;2023-05-20T14:38:50;7.00;;;4.32;;
42682;SDS011;28293;50.930;3.464;2023-05-20T14:41:18;8.27;;;4.10;;